Time;durP1;ratioP1;P1;durP2;ratioP2;P2;SDS_P1;SDS_P2;PMS_P1;PMS_P2;Temp;Humidity;BMP_temperature;BMP_pressure;BME280_temperature;BME280_humidity;BME280_pressure;Samples;Min_cycle;Max_cycle;Signal;HPM_P1;HPM_P2
2022/01/24 00:01:53;;;;;;;41.63;26.50;;;;;;;4.35;89.06;103427.91;5051902;28;20071;-52
2022/01/24 00:04:20;;;;;;;43.50;27.02;;;;;;;4.36;88.44;103415.91;5051788;28;20051;-54
2022/01/24 00:06:45;;;;;;;42.17;27.40;;;;;;;4.34;86.80;103422.63;5052459;28;20021;-54
2022/01/24 00:09:12;;;;;;;40.65;26.77;;;;;;;4.30;86.81;103433.13;5052339;28;20029;-56
2022/01/24 00:11:49;;;;;;;42.65;26.92;;;;;;;4.29;86.10;103425.13;5051711;28;20029;-52
2022/01/24 00:14:49;;;;;;;40.97;25.65;;;;;;;4.30;84.87;103422.16;5052443;28;20064;-53
2022/01/24 00:17:07;;;;;;;40.38;25.67;;;;;;;4.26;84.49;103418.16;5054776;28;20045;-52
2022/01/24 00:27:46;;;;;;;39.92;26.52;;;;;;;4.20;84.41;103417.06;5056440;28;20102;-54
2022/01/24 00:30:11;;;;;;;40.17;25.08;;;;;;;4.21;84.85;103426.97;5056527;28;20425;-56
2022/01/24 00:32:37;;;;;;;42.53;27.58;;;;;;;4.22;84.66;103417.69;5055564;28;20530;-56
2022/01/24 00:35:03;;;;;;;43.80;27.42;;;;;;;4.24;84.45;103417.50;5055930;28;20056;-51
2022/01/24 00:37:32;;;;;;;39.72;26.30;;;;;;;4.21;84.07;103412.41;5055360;28;20029;-52
2022/01/24 00:39:58;;;;;;;41.10;27.30;;;;;;;4.21;83.79;103410.53;5056113;28;20021;-54
2022/01/24 00:45:13;;;;;;;39.83;25.83;;;;;;;4.20;83.25;103416.22;5055809;28;20037;-54
2022/01/24 00:48:03;;;;;;;40.78;25.58;;;;;;;4.17;81.92;103402.91;5055120;28;20112;-54
2022/01/24 00:55:59;;;;;;;36.78;24.50;;;;;;;4.18;82.11;103405.44;5055860;28;20426;-55
2022/01/24 00:58:24;;;;;;;37.13;25.42;;;;;;;4.16;81.06;103409.44;5055740;28;20021;-54
2022/01/24 01:00:50;;;;;;;41.03;26.13;;;;;;;4.13;81.25;103407.94;5055285;28;20036;-55
2022/01/24 01:03:17;;;;;;;39.03;26.08;;;;;;;4.13;81.56;103398.84;5054040;28;20027;-55
2022/01/24 01:19:05;;;;;;;36.85;23.98;;;;;;;4.07;81.13;103389.53;5035718;28;20464;-55
2022/01/24 01:21:30;;;;;;;35.30;23.73;;;;;;;4.13;81.40;103396.13;5034296;28;20052;-53
2022/01/24 01:23:58;;;;;;;36.38;23.52;;;;;;;4.11;81.30;103390.84;5034141;28;20469;-54
2022/01/24 01:26:38;;;;;;;35.80;24.25;;;;;;;4.10;80.91;103391.06;5034088;28;20132;-54
2022/01/24 01:29:16;;;;;;;37.00;23.13;;;;;;;4.13;80.72;103398.84;5034777;28;20465;-55
2022/01/24 01:34:26;;;;;;;35.83;22.65;;;;;;;4.10;80.62;103394.63;5035138;28;20041;-54
2022/01/24 01:37:27;;;;;;;36.63;23.20;;;;;;;4.09;80.76;103389.38;5034638;28;20025;-55
2022/01/24 01:40:23;;;;;;;36.80;23.15;;;;;;;4.08;81.43;103393.16;5034260;28;20049;-54
2022/01/24 01:52:22;;;;;;;35.03;22.13;;;;;;;4.09;81.68;103395.69;5034244;28;20378;-54
2022/01/24 01:54:15;;;;;;;35.42;21.52;;;;;;;4.05;81.15;103397.97;5032830;28;20378;-53
2022/01/24 01:56:42;;;;;;;34.45;20.77;;;;;;;4.05;81.48;103400.72;5034095;28;20025;-53
2022/01/24 01:59:07;;;;;;;33.13;21.38;;;;;;;4.06;81.84;103399.66;5034183;28;20040;-57
2022/01/24 02:01:32;;;;;;;34.35;21.30;;;;;;;4.04;81.42;103407.22;5034145;28;20022;-55
2022/01/24 02:04:02;;;;;;;34.70;22.02;;;;;;;4.02;81.07;103400.25;5033053;28;20491;-54
2022/01/24 02:06:28;;;;;;;34.42;20.60;;;;;;;4.00;81.43;103385.91;5033307;28;20108;-55
2022/01/24 02:09:06;;;;;;;33.80;21.60;;;;;;;3.99;81.22;103384.22;5032940;28;20108;-52
2022/01/24 02:11:31;;;;;;;31.17;20.17;;;;;;;4.01;81.32;103387.63;5034337;28;20476;-54
2022/01/24 02:14:02;;;;;;;32.63;19.95;;;;;;;4.01;81.69;103383.00;5034169;28;20040;-55
2022/01/24 02:16:55;;;;;;;32.95;21.05;;;;;;;4.00;80.44;103385.91;5033005;28;20025;-56
2022/01/24 02:19:30;;;;;;;33.13;20.80;;;;;;;3.99;80.46;103386.94;5033714;28;20072;-55
2022/01/24 02:24:24;;;;;;;34.38;20.20;;;;;;;3.99;81.40;103376.88;5033059;28;20037;-54
2022/01/24 02:26:54;;;;;;;32.03;20.33;;;;;;;3.99;81.06;103378.75;5033048;28;20068;-53
2022/01/24 02:29:33;;;;;;;32.92;21.08;;;;;;;3.98;80.65;103382.53;5033661;28;20059;-53
2022/01/24 02:31:58;;;;;;;32.20;20.45;;;;;;;3.96;80.57;103371.78;5033750;28;20064;-55
2022/01/24 02:34:37;;;;;;;32.58;21.00;;;;;;;3.90;80.85;103358.88;5033246;28;20067;-52
2022/01/24 02:37:05;;;;;;;32.08;20.27;;;;;;;3.92;80.13;103373.19;5033269;28;20431;-53
2022/01/24 02:39:47;;;;;;;30.38;19.05;;;;;;;3.94;80.00;103365.63;5033041;28;20022;-55
2022/01/24 02:53:03;;;;;;;30.48;20.30;;;;;;;3.95;81.19;103364.59;5033056;28;20077;-54
2022/01/24 02:55:28;;;;;;;32.83;20.48;;;;;;;3.94;80.84;103365.63;5033383;28;20107;-53
2022/01/24 02:57:53;;;;;;;30.90;19.33;;;;;;;3.95;80.83;103361.84;5032626;28;20473;-53
2022/01/24 03:00:18;;;;;;;31.85;19.42;;;;;;;3.95;80.25;103367.34;5033269;28;20037;-52
2022/01/24 03:02:44;;;;;;;30.35;19.77;;;;;;;3.93;80.22;103355.72;5033142;28;20032;-51
2022/01/24 03:05:09;;;;;;;29.38;18.70;;;;;;;3.92;79.31;103362.25;5032988;28;20029;-54
2022/01/24 03:07:34;;;;;;;29.98;17.98;;;;;;;3.92;79.40;103362.25;5032176;28;20057;-55
2022/01/24 03:10:08;;;;;;;29.08;17.52;;;;;;;3.92;78.96;103353.19;5033434;28;20035;-56
2022/01/24 03:12:43;;;;;;;28.83;17.85;;;;;;;3.95;79.74;103356.38;5032629;28;20132;-55
2022/01/24 03:15:09;;;;;;;29.27;17.67;;;;;;;3.94;79.26;103359.34;5032051;28;20040;-54
2022/01/24 03:17:35;;;;;;;28.73;17.58;;;;;;;3.95;79.20;103353.66;5032322;28;20033;-56
2022/01/24 03:20:00;;;;;;;28.45;17.60;;;;;;;3.96;80.06;103347.13;5032485;28;20068;-57
2022/01/24 03:22:25;;;;;;;28.00;17.92;;;;;;;3.97;79.25;103348.81;5032389;28;20104;-53
2022/01/24 03:24:51;;;;;;;29.10;17.48;;;;;;;3.94;79.04;103345.63;5032686;28;20033;-53
2022/01/24 03:27:16;;;;;;;28.55;18.40;;;;;;;3.93;79.83;103342.03;5031885;28;20040;-50
2022/01/24 03:29:42;;;;;;;28.80;17.95;;;;;;;3.94;80.19;103342.91;5039243;28;20035;-54
2022/01/24 03:32:07;;;;;;;30.05;18.75;;;;;;;3.92;79.74;103353.19;5052133;28;20326;-53
2022/01/24 03:34:32;;;;;;;29.63;18.60;;;;;;;3.88;79.73;103353.59;5052054;28;20037;-54
2022/01/24 03:36:58;;;;;;;29.88;18.98;;;;;;;3.87;79.80;103340.94;5052054;28;20028;-55
2022/01/24 03:39:23;;;;;;;28.08;17.90;;;;;;;3.83;79.83;103339.66;5051745;28;20025;-53
2022/01/24 03:41:48;;;;;;;28.52;18.13;;;;;;;3.84;79.43;103341.34;5051635;28;20027;-55
2022/01/24 03:44:15;;;;;;;28.83;17.60;;;;;;;3.83;78.80;103347.00;5051848;28;20083;-54
2022/01/24 03:47:02;;;;;;;29.30;18.15;;;;;;;3.82;79.65;103348.09;5051584;28;20044;-54
2022/01/24 03:49:48;;;;;;;30.13;18.38;;;;;;;3.78;79.19;103346.78;5051720;28;20087;-55
2022/01/24 03:52:15;;;;;;;28.65;17.13;;;;;;;3.80;80.50;103350.16;5051432;28;20052;-55
2022/01/24 03:54:43;;;;;;;27.67;17.73;;;;;;;3.80;80.66;103340.03;5052341;28;20041;-55
2022/01/24 03:57:09;;;;;;;29.98;18.08;;;;;;;3.82;80.20;103343.44;5052155;28;20032;-55
2022/01/24 03:59:34;;;;;;;28.00;17.58;;;;;;;3.81;79.24;103340.91;5051549;28;20480;-55
2022/01/24 04:02:00;;;;;;;29.33;17.63;;;;;;;3.80;80.19;103347.44;5051777;28;20113;-54
2022/01/24 04:04:26;;;;;;;28.02;17.95;;;;;;;3.82;79.89;103337.13;5052128;28;20104;-57
2022/01/24 04:06:52;;;;;;;28.00;17.85;;;;;;;3.81;78.90;103346.38;5051503;28;20052;-55
2022/01/24 04:09:17;;;;;;;28.35;17.17;;;;;;;3.81;78.88;103339.00;5052216;28;20029;-56
2022/01/24 04:11:43;;;;;;;29.20;17.58;;;;;;;3.83;79.34;103342.41;5051802;28;20029;-53
2022/01/24 04:14:34;;;;;;;29.95;17.92;;;;;;;3.80;79.18;103342.78;5051670;28;20032;-52
2022/01/24 04:22:10;;;;;;;29.00;17.50;;;;;;;3.78;80.13;103333.91;5052128;28;20112;-55
2022/01/24 04:24:35;;;;;;;29.10;16.95;;;;;;;3.77;80.73;103324.03;5051857;28;20418;-54
2022/01/24 04:27:01;;;;;;;29.02;18.38;;;;;;;3.80;80.63;103331.00;5052003;28;20108;-55
2022/01/24 04:29:26;;;;;;;30.40;19.35;;;;;;;3.80;80.52;103341.94;5051882;28;20079;-55
2022/01/24 04:31:51;;;;;;;29.35;17.83;;;;;;;3.77;80.36;103335.00;5052112;28;20094;-55
2022/01/24 04:34:17;;;;;;;28.95;18.13;;;;;;;3.75;79.84;103339.81;5052406;28;20037;-55
2022/01/24 04:36:42;;;;;;;28.73;18.10;;;;;;;3.78;80.59;103336.66;5052048;28;20025;-54
2022/01/24 04:39:07;;;;;;;28.50;17.90;;;;;;;3.78;80.73;103342.13;5051991;28;20060;-54
2022/01/24 04:41:37;;;;;;;31.58;19.38;;;;;;;3.78;80.32;103346.78;5052366;28;20025;-55
2022/01/24 04:44:13;;;;;;;29.83;18.45;;;;;;;3.75;80.03;103340.66;5051968;28;20309;-55
2022/01/24 04:52:11;;;;;;;32.30;20.13;;;;;;;3.77;80.74;103347.81;5052207;28;20094;-55
2022/01/24 04:54:41;;;;;;;30.00;19.10;;;;;;;3.74;80.91;103344.41;5050407;28;20196;-54
2022/01/24 04:57:08;;;;;;;30.20;19.40;;;;;;;3.73;80.64;103344.63;5051725;28;20025;-53
2022/01/24 04:59:34;;;;;;;30.98;19.23;;;;;;;3.70;80.86;103337.66;5052084;28;20029;-55
2022/01/24 05:02:00;;;;;;;29.92;19.77;;;;;;;3.70;80.88;103348.63;5052005;28;20043;-55
2022/01/24 05:04:25;;;;;;;31.15;19.42;;;;;;;3.69;80.47;103348.78;5055592;28;20021;-56
2022/01/24 05:06:50;;;;;;;32.50;20.63;;;;;;;3.66;80.26;103346.47;5055330;28;20083;-55
2022/01/24 05:09:18;;;;;;;33.55;20.70;;;;;;;3.66;79.55;103351.94;5055389;28;20025;-55
2022/01/24 05:12:01;;;;;;;32.17;19.55;;;;;;;3.65;80.44;103353.00;5055662;28;20025;-54
2022/01/24 05:25:22;;;;;;;;;;;;;;;3.71;81.96;103342.09;5055214;28;20159;-54
2022/01/24 05:27:48;;;;;;;30.83;18.43;;;;;;;3.64;80.75;103345.81;5054340;28;20020;-54
2022/01/24 05:30:14;;;;;;;29.80;18.80;;;;;;;3.65;81.01;103336.56;5054444;28;20295;-54
2022/01/24 05:32:40;;;;;;;30.67;19.85;;;;;;;3.69;80.99;103343.31;5053909;28;20120;-54
2022/01/24 05:35:05;;;;;;;30.27;18.42;;;;;;;3.66;78.76;103341.84;5052580;28;20529;-55
2022/01/24 05:37:31;;;;;;;29.90;18.55;;;;;;;3.66;78.35;103338.25;5052870;28;20036;-54
2022/01/24 05:39:56;;;;;;;31.80;21.55;;;;;;;3.66;78.22;103343.75;5054066;28;20452;-54
2022/01/24 05:42:22;;;;;;;28.92;17.83;;;;;;;3.65;78.58;103336.56;5054808;28;20028;-54
2022/01/24 05:44:52;;;;;;;31.75;19.42;;;;;;;3.65;78.41;103344.78;5054060;28;20040;-51
2022/01/24 05:47:17;;;;;;;30.52;19.35;;;;;;;3.61;78.82;103349.81;5053859;28;20492;-55
2022/01/24 05:49:43;;;;;;;32.28;18.95;;;;;;;3.62;78.78;103351.50;5054339;28;20025;-53
2022/01/24 05:52:09;;;;;;;31.20;20.02;;;;;;;3.61;79.36;103346.19;5054125;28;20063;-55
2022/01/24 05:54:37;;;;;;;32.42;19.98;;;;;;;3.54;79.62;103335.22;5054304;28;20037;-53
2022/01/24 05:57:03;;;;;;;32.90;21.17;;;;;;;3.61;79.90;103346.19;5053319;28;20041;-54
2022/01/24 05:59:29;;;;;;;32.22;20.33;;;;;;;3.62;80.08;103343.28;5054271;28;20423;-52
2022/01/24 06:01:54;;;;;;;32.65;20.17;;;;;;;3.63;80.37;103342.25;5053163;28;20029;-52
2022/01/24 06:04:19;;;;;;;33.05;20.85;;;;;;;3.64;79.89;103346.66;5054811;28;20032;-50
2022/01/24 06:06:44;;;;;;;30.60;19.15;;;;;;;3.64;79.72;103349.38;5053884;28;20075;-54
2022/01/24 06:09:10;;;;;;;31.40;18.77;;;;;;;3.66;80.50;103344.56;5053875;28;20032;-52
2022/01/24 06:11:35;;;;;;;30.63;19.67;;;;;;;3.67;79.70;103339.97;5053848;28;20094;-53
2022/01/24 06:14:02;;;;;;;31.25;20.20;;;;;;;3.67;79.15;103354.47;5054577;28;20025;-54
2022/01/24 06:16:27;;;;;;;31.23;18.95;;;;;;;3.65;79.05;103344.78;5054452;28;20116;-55
2022/01/24 06:18:53;;;;;;;30.33;18.85;;;;;;;3.62;78.61;103351.50;5054148;28;20028;-55
2022/01/24 06:21:18;;;;;;;30.05;18.88;;;;;;;3.66;79.93;103352.78;5054494;28;20383;-52
2022/01/24 06:23:43;;;;;;;30.67;20.20;;;;;;;3.62;79.34;103351.50;5053720;28;20028;-54
2022/01/24 06:26:10;;;;;;;31.27;19.38;;;;;;;3.60;79.51;103345.38;5054294;28;20020;-54
2022/01/24 06:28:36;;;;;;;30.40;19.60;;;;;;;3.63;79.67;103350.47;5054479;28;20017;-54
2022/01/24 06:31:01;;;;;;;30.38;18.92;;;;;;;3.65;79.91;103345.63;5054331;28;20025;-50
2022/01/24 06:33:26;;;;;;;31.52;20.05;;;;;;;3.65;79.88;103348.34;5054100;28;20542;-52
2022/01/24 06:35:52;;;;;;;31.33;20.40;;;;;;;3.64;79.93;103352.13;5053466;28;20468;-53
2022/01/24 06:38:17;;;;;;;31.58;19.67;;;;;;;3.64;79.38;103343.09;5053865;28;20028;-53
2022/01/24 06:40:42;;;;;;;32.95;20.30;;;;;;;3.62;78.97;103337.81;5054133;28;20464;-53
2022/01/24 06:43:08;;;;;;;31.23;19.77;;;;;;;3.62;79.66;103342.44;5052195;28;20498;-50
2022/01/24 06:45:33;;;;;;;32.63;20.40;;;;;;;3.58;79.46;103342.84;5052054;28;20048;-56
2022/01/24 06:47:58;;;;;;;31.90;20.85;;;;;;;3.57;80.01;103349.34;5051413;28;20029;-54
2022/01/24 06:50:24;;;;;;;32.72;19.77;;;;;;;3.57;80.18;103343.88;5047869;28;20113;-55
2022/01/24 06:52:49;;;;;;;33.53;21.73;;;;;;;3.56;79.81;103347.66;5038328;28;20049;-55
2022/01/24 06:55:15;;;;;;;32.33;20.05;;;;;;;3.55;79.86;103351.44;5031692;28;20029;-55
2022/01/24 06:57:40;;;;;;;32.45;20.55;;;;;;;3.55;80.45;103348.69;5029419;28;20148;-56
2022/01/24 07:00:06;;;;;;;32.15;20.52;;;;;;;3.53;80.36;103344.47;5031190;28;20377;-52
2022/01/24 07:02:32;;;;;;;31.58;19.92;;;;;;;3.49;80.57;103344.03;5031603;28;20361;-55
2022/01/24 07:04:57;;;;;;;31.70;20.13;;;;;;;3.48;81.32;103352.41;5031087;28;20028;-54
2022/01/24 07:07:22;;;;;;;32.92;20.70;;;;;;;3.48;81.27;103350.53;5030794;28;20029;-55
2022/01/24 07:09:47;;;;;;;32.30;20.27;;;;;;;3.48;81.33;103356.00;5031721;28;20477;-55
2022/01/24 07:12:13;;;;;;;31.65;19.30;;;;;;;3.47;81.38;103356.19;5031433;28;20029;-55
2022/01/24 07:14:40;;;;;;;34.42;21.23;;;;;;;3.46;81.67;103359.97;5031441;28;20060;-54
2022/01/24 07:20:03;;;;;;;33.05;21.35;;;;;;;3.43;81.12;103361.22;5027947;28;20072;-53
2022/01/24 07:22:28;;;;;;;33.95;22.25;;;;;;;3.43;81.29;103359.34;5030475;28;20053;-55
2022/01/24 07:24:54;;;;;;;35.22;23.10;;;;;;;3.41;81.85;103363.28;5029841;28;20044;-54
2022/01/24 07:27:19;;;;;;;34.88;23.90;;;;;;;3.42;81.52;103373.19;5028955;28;20499;-54
2022/01/24 07:29:44;;;;;;;33.85;22.90;;;;;;;3.42;81.42;103360.38;5030055;28;20099;-55
2022/01/24 07:32:13;;;;;;;34.25;22.17;;;;;;;3.43;81.97;103366.69;5030506;28;20048;-56
2022/01/24 07:34:38;;;;;;;34.38;22.58;;;;;;;3.42;81.71;103365.84;5031019;28;20388;-57
2022/01/24 07:37:04;;;;;;;35.05;23.05;;;;;;;3.42;81.74;103365.00;5030681;28;20032;-52
2022/01/24 07:39:31;;;;;;;34.60;22.25;;;;;;;3.47;82.26;103361.66;5030940;28;20531;-56
2022/01/24 07:42:02;;;;;;;34.60;22.98;;;;;;;3.42;81.45;103357.63;5030914;28;20030;-54
2022/01/24 07:44:28;;;;;;;36.28;23.33;;;;;;;3.49;81.59;103365.91;5030800;28;20033;-55
2022/01/24 07:46:53;;;;;;;36.13;23.60;;;;;;;3.48;81.67;103363.34;5030798;28;20384;-54
2022/01/24 07:49:18;;;;;;;37.60;23.67;;;;;;;3.49;81.56;103365.91;5030511;28;20448;-54
2022/01/24 07:51:44;;;;;;;36.42;24.45;;;;;;;3.48;81.56;103379.78;5042848;28;20106;-56
2022/01/24 07:54:09;;;;;;;37.20;24.55;;;;;;;3.46;80.87;103381.84;5032506;28;20033;-49
2022/01/24 07:56:35;;;;;;;38.40;25.23;;;;;;;3.47;80.61;103384.41;5033884;28;20030;-56
2022/01/24 07:59:01;;;;;;;39.03;25.80;;;;;;;3.49;80.80;103396.03;5032763;28;20072;-54
2022/01/24 08:01:26;;;;;;;39.47;25.33;;;;;;;3.51;80.37;103399.38;5032946;28;20029;-53
2022/01/24 08:03:51;;;;;;;39.70;26.23;;;;;;;3.54;79.87;103398.19;5032902;28;20029;-56
2022/01/24 08:06:18;;;;;;;39.78;25.60;;;;;;;3.52;79.94;103394.78;5033070;28;20049;-55
2022/01/24 08:08:44;;;;;;;40.60;26.27;;;;;;;3.44;79.30;103406.69;5032986;28;20026;-56
2022/01/24 08:11:09;;;;;;;40.10;25.08;;;;;;;3.41;79.58;103402.47;5033014;28;20357;-56
2022/01/24 08:13:36;;;;;;;39.90;25.92;;;;;;;3.43;79.86;103405.88;5032796;28;20095;-56
2022/01/24 08:16:01;;;;;;;41.45;25.40;;;;;;;3.43;80.35;103397.66;5032839;28;20030;-55
2022/01/24 08:18:27;;;;;;;38.15;24.45;;;;;;;3.45;79.77;103400.19;5031873;28;20036;-55
2022/01/24 08:20:52;;;;;;;42.10;26.38;;;;;;;3.48;80.09;103396.19;5032126;28;20037;-54
2022/01/24 08:23:19;;;;;;;40.45;26.90;;;;;;;3.47;80.39;103400.84;5032802;28;20044;-55
2022/01/24 08:25:45;;;;;;;40.83;25.80;;;;;;;3.48;80.02;103408.00;5032702;28;20496;-56
2022/01/24 08:28:10;;;;;;;42.25;26.65;;;;;;;3.48;80.18;103393.47;5032448;28;20033;-52
2022/01/24 08:30:36;;;;;;;40.85;25.80;;;;;;;3.48;79.69;103393.47;5032549;28;20500;-55
2022/01/24 08:33:01;;;;;;;40.53;25.35;;;;;;;3.48;79.63;103404.41;5032658;28;20037;-55
2022/01/24 08:35:27;;;;;;;44.20;27.15;;;;;;;3.47;80.46;103403.59;5033300;28;20021;-56
2022/01/24 08:37:52;;;;;;;44.92;27.73;;;;;;;3.50;80.29;103399.59;5036410;28;20029;-55
2022/01/24 08:40:24;;;;;;;42.40;25.67;;;;;;;3.45;80.17;103394.72;5036546;28;20021;-54
2022/01/24 08:43:00;;;;;;;42.70;26.58;;;;;;;3.49;79.70;103401.50;5036395;28;20029;-54
2022/01/24 08:45:50;;;;;;;46.15;29.73;;;;;;;3.48;80.27;103401.69;5036667;28;20068;-53
2022/01/24 08:48:17;;;;;;;44.53;26.15;;;;;;;3.46;80.01;103401.00;5036454;28;20068;-54
2022/01/24 08:50:44;;;;;;;42.03;26.80;;;;;;;3.54;80.30;103409.13;5036516;28;20028;-56
2022/01/24 08:53:10;;;;;;;42.15;26.27;;;;;;;3.58;80.24;103404.94;5036361;28;20045;-54
2022/01/24 08:55:37;;;;;;;45.42;27.85;;;;;;;3.56;79.58;103410.63;5036446;28;20132;-56
2022/01/24 08:58:05;;;;;;;43.78;27.02;;;;;;;3.49;80.00;103397.91;5036223;28;20104;-55
2022/01/24 09:00:30;;;;;;;47.03;27.83;;;;;;;3.54;79.05;103406.38;5036131;28;20032;-54
2022/01/24 09:02:56;;;;;;;42.75;25.58;;;;;;;3.53;79.44;103397.31;5036049;28;20132;-55
2022/01/24 09:05:23;;;;;;;43.88;26.90;;;;;;;3.51;79.07;103413.06;5035993;28;20085;-55
2022/01/24 09:07:49;;;;;;;42.63;26.45;;;;;;;3.53;79.13;103405.53;5036035;28;20036;-55
2022/01/24 09:10:16;;;;;;;44.63;26.15;;;;;;;3.51;79.04;103404.88;5035853;28;20465;-53
2022/01/24 09:12:42;;;;;;;41.63;26.02;;;;;;;3.56;79.31;103409.75;5041602;28;20032;-55
2022/01/24 09:15:07;;;;;;;42.45;27.10;;;;;;;3.59;79.46;103412.09;5055894;28;20029;-54
2022/01/24 09:17:33;;;;;;;44.22;28.75;;;;;;;3.58;78.43;103414.00;5055585;28;20431;-54
2022/01/24 09:19:59;;;;;;;41.53;26.35;;;;;;;3.58;78.61;103413.16;5055775;28;20036;-55
2022/01/24 09:22:25;;;;;;;41.45;24.98;;;;;;;3.63;79.20;103412.56;5055594;28;20353;-55
2022/01/24 09:24:50;;;;;;;37.60;23.85;;;;;;;3.68;78.65;103405.47;5055642;28;20017;-54
2022/01/24 09:27:15;;;;;;;39.00;24.63;;;;;;;3.68;78.04;103415.56;5055844;28;20037;-56
2022/01/24 09:29:41;;;;;;;39.50;24.00;;;;;;;3.69;78.60;103417.25;5055677;28;20333;-55
2022/01/24 09:32:07;;;;;;;39.75;25.25;;;;;;;3.72;78.75;103408.66;5055454;28;20310;-55
2022/01/24 09:34:32;;;;;;;40.55;25.48;;;;;;;3.79;79.05;103405.97;5055565;28;20033;-55
2022/01/24 09:36:58;;;;;;;37.28;25.08;;;;;;;3.82;78.17;103411.91;5055365;28;20024;-54
2022/01/24 09:39:23;;;;;;;40.50;25.95;;;;;;;3.80;77.19;103411.25;5055355;28;20053;-56
2022/01/24 09:41:48;;;;;;;39.75;24.95;;;;;;;3.78;77.45;103407.84;5055291;28;20563;-54
2022/01/24 09:44:14;;;;;;;39.28;25.35;;;;;;;3.78;77.64;103407.84;5055270;28;20025;-55
2022/01/24 09:46:44;;;;;;;37.55;24.33;;;;;;;3.80;78.03;103405.75;5055001;28;20480;-55
2022/01/24 09:49:11;;;;;;;37.63;22.98;;;;;;;3.73;78.29;103399.38;5054858;28;20131;-54
2022/01/24 09:51:37;;;;;;;35.80;22.80;;;;;;;3.81;78.29;103409.38;5055023;28;20021;-56
2022/01/24 09:54:04;;;;;;;36.85;23.00;;;;;;;3.84;77.61;103409.81;5055385;28;20484;-55
2022/01/24 09:56:29;;;;;;;37.88;24.45;;;;;;;3.85;77.38;103405.16;5055314;28;20021;-55
2022/01/24 09:58:55;;;;;;;40.20;25.30;;;;;;;3.85;77.12;103411.50;5053372;28;20133;-56
2022/01/24 10:01:20;;;;;;;39.00;25.27;;;;;;;3.81;76.04;103406.63;5053986;28;20040;-55
2022/01/24 10:04:17;;;;;;;38.70;25.17;;;;;;;3.82;77.59;103406.41;5054952;28;20492;-55
2022/01/24 10:07:16;;;;;;;37.88;23.88;;;;;;;3.84;77.10;103408.94;5054943;28;20542;-55
2022/01/24 10:09:42;;;;;;;37.15;22.52;;;;;;;3.87;77.63;103400.34;5055074;28;20033;-55
2022/01/24 10:12:18;;;;;;;37.00;22.52;;;;;;;3.92;76.66;103399.75;5054942;28;20032;-56
2022/01/24 10:17:31;;;;;;;35.60;23.02;;;;;;;3.88;76.13;103405.63;5054867;28;20175;-53
2022/01/24 10:19:56;;;;;;;38.58;23.48;;;;;;;3.89;76.67;103401.00;5054829;28;20021;-56
2022/01/24 10:22:25;;;;;;;36.50;23.33;;;;;;;3.97;77.45;103406.34;5054577;28;20040;-55
2022/01/24 10:24:54;;;;;;;37.55;22.73;;;;;;;4.00;77.06;103405.09;5054560;28;20403;-55
2022/01/24 10:27:27;;;;;;;35.08;21.70;;;;;;;4.02;76.37;103401.09;5054536;28;20112;-55
2022/01/24 10:30:02;;;;;;;38.65;25.15;;;;;;;4.06;77.25;103388.72;5054802;28;20025;-56
2022/01/24 10:32:47;;;;;;;41.80;26.40;;;;;;;4.17;77.47;103394.69;5054661;28;20494;-53
2022/01/24 10:35:38;;;;;;;38.17;25.20;;;;;;;4.26;77.01;103400.84;5054889;28;20522;-53
2022/01/24 10:38:27;;;;;;;39.70;23.92;;;;;;;4.35;77.55;103396.91;5054442;28;20029;-56
2022/01/24 10:43:58;;;;;;;36.03;23.00;;;;;;;4.41;75.58;103396.09;5049541;28;20041;-55
2022/01/24 10:46:26;;;;;;;40.00;23.70;;;;;;;4.43;75.03;103379.44;5054246;28;20025;-54
2022/01/24 10:49:04;;;;;;;37.13;23.92;;;;;;;4.55;74.99;103388.81;5054066;28;20033;-56
2022/01/24 10:51:44;;;;;;;36.83;24.27;;;;;;;4.55;74.72;103368.75;5053010;28;20041;-54
2022/01/24 10:54:09;;;;;;;38.17;23.67;;;;;;;4.65;74.33;103381.06;5053965;28;20033;-56
2022/01/24 10:56:41;;;;;;;37.00;24.40;;;;;;;4.69;74.72;103378.75;5053831;28;20017;-54
2022/01/24 10:59:06;;;;;;;41.30;25.52;;;;;;;4.69;74.24;103376.00;5052888;28;20098;-58
2022/01/24 11:01:32;;;;;;;39.97;24.70;;;;;;;4.76;74.62;103373.31;5053982;28;20532;-55
2022/01/24 11:04:03;;;;;;;40.20;24.27;;;;;;;4.79;73.79;103372.88;5053822;28;20276;-55
2022/01/24 11:06:31;;;;;;;38.42;23.83;;;;;;;4.88;73.84;103371.63;5053771;28;20037;-54
2022/01/24 11:09:13;;;;;;;39.95;25.08;;;;;;;4.96;74.04;103371.44;5053723;28;20039;-57
2022/01/24 11:11:39;;;;;;;39.15;24.17;;;;;;;4.96;73.13;103365.13;5053697;28;20021;-56
2022/01/24 11:14:09;;;;;;;40.33;25.05;;;;;;;4.95;72.77;103358.81;5053760;28;20039;-55
2022/01/24 11:16:37;;;;;;;38.13;23.30;;;;;;;5.01;72.53;103368.09;5053557;28;20025;-55
2022/01/24 11:19:08;;;;;;;38.30;24.52;;;;;;;4.94;73.27;103356.25;5053422;28;20528;-55
2022/01/24 11:21:34;;;;;;;41.03;25.05;;;;;;;4.97;74.15;103361.34;5053590;28;20021;-55
2022/01/24 11:24:06;;;;;;;39.17;24.90;;;;;;;5.00;72.52;103361.78;5053809;28;20104;-55
2022/01/24 11:26:32;;;;;;;40.42;24.38;;;;;;;5.05;72.08;103357.56;5053918;28;20047;-55
2022/01/24 11:28:57;;;;;;;37.20;22.20;;;;;;;5.07;72.00;103350.81;5053369;28;20025;-56
2022/01/24 11:31:30;;;;;;;37.80;22.90;;;;;;;5.09;71.41;103353.34;5053293;28;20029;-56
2022/01/24 11:34:05;;;;;;;37.65;23.45;;;;;;;5.15;71.87;103353.38;5053327;28;20044;-56
2022/01/24 11:36:42;;;;;;;37.33;23.60;;;;;;;5.17;71.51;103355.91;5053255;28;20469;-55
2022/01/24 11:39:08;;;;;;;35.70;21.70;;;;;;;5.10;71.59;103360.53;5053341;28;20043;-55
2022/01/24 11:41:37;;;;;;;34.28;21.95;;;;;;;5.03;72.45;103356.94;5053248;28;20032;-55
2022/01/24 11:44:15;;;;;;;34.97;22.85;;;;;;;5.00;71.61;103360.94;5053342;28;20100;-56
2022/01/24 11:46:47;;;;;;;37.58;23.20;;;;;;;4.97;72.21;103364.09;5053347;28;20029;-56
2022/01/24 11:49:27;;;;;;;34.30;22.13;;;;;;;4.96;72.27;103359.66;5053125;28;20120;-54
2022/01/24 11:52:04;;;;;;;38.25;23.95;;;;;;;4.92;72.92;103361.09;5052958;28;20468;-55
2022/01/24 11:55:15;;;;;;;38.00;23.27;;;;;;;4.88;72.67;103357.09;5053012;28;20100;-56
2022/01/24 11:57:41;;;;;;;37.42;23.17;;;;;;;4.92;73.29;103344.63;5051822;28;20353;-56
2022/01/24 12:00:07;;;;;;;39.08;24.50;;;;;;;4.95;72.28;103341.50;5052975;28;20025;-57
2022/01/24 12:02:47;;;;;;;37.35;22.98;;;;;;;4.93;72.33;103341.72;5052937;28;20431;-56
2022/01/24 12:05:21;;;;;;;35.72;22.75;;;;;;;4.93;72.91;103328.00;5052677;28;20126;-55
2022/01/24 12:07:55;;;;;;;36.95;22.83;;;;;;;4.91;72.33;103329.25;5053073;28;20036;-55
2022/01/24 12:10:20;;;;;;;35.40;22.38;;;;;;;4.95;71.90;103336.00;5053289;28;20048;-56
2022/01/24 12:12:49;;;;;;;35.67;23.10;;;;;;;4.97;71.58;103336.66;5052867;28;20468;-56
2022/01/24 12:15:36;;;;;;;35.10;22.35;;;;;;;5.03;72.36;103334.97;5053713;28;20302;-55
2022/01/24 12:18:05;;;;;;;36.80;24.05;;;;;;;4.97;71.52;103339.41;5053176;28;20029;-55
2022/01/24 12:20:31;;;;;;;35.30;22.63;;;;;;;4.95;71.52;103336.00;5053101;28;20480;-56
2022/01/24 12:23:16;;;;;;;34.80;22.63;;;;;;;5.00;72.51;103334.34;5035861;28;20022;-56
2022/01/24 12:25:48;;;;;;;33.28;21.90;;;;;;;5.01;71.77;103335.16;5031742;28;20042;-54
2022/01/24 12:28:25;;;;;;;37.58;23.13;;;;;;;5.06;71.69;103337.28;5031360;28;20381;-55
2022/01/24 12:31:04;;;;;;;38.28;23.52;;;;;;;5.07;72.61;103334.34;5030740;28;20033;-56
2022/01/24 12:33:39;;;;;;;37.03;23.23;;;;;;;5.07;71.36;103319.78;5030545;28;20064;-56
2022/01/24 12:36:15;;;;;;;38.65;23.77;;;;;;;5.17;71.91;103325.72;5030504;28;20041;-55
2022/01/24 12:38:42;;;;;;;36.63;23.15;;;;;;;5.21;73.18;103320.66;5030731;28;20033;-55
2022/01/24 12:41:20;;;;;;;37.13;24.20;;;;;;;5.25;72.05;103320.00;5030849;28;20025;-55
2022/01/24 12:46:24;;;;;;;37.95;23.33;;;;;;;5.19;70.97;103298.91;5041221;28;20075;-56
2022/01/24 12:48:50;;;;;;;39.78;24.08;;;;;;;5.21;70.76;103310.53;5044868;28;20041;-56
2022/01/24 12:51:16;;;;;;;39.60;24.55;;;;;;;5.23;70.53;103302.06;5050471;28;20064;-55
2022/01/24 12:53:42;;;;;;;39.25;23.63;;;;;;;5.29;70.62;103301.25;5050014;28;20059;-56